Time;durP1;ratioP1;P1;durP2;ratioP2;P2;SDS_P1;SDS_P2;PMS_P1;PMS_P2;Temp;Humidity;BMP_temperature;BMP_pressure;BME280_temperature;BME280_humidity;BME280_pressure;Samples;Min_cycle;Max_cycle;Signal;HPM_P1;HPM_P2
2023/06/06 00:01:45;;;;;;;9.13;7.88;;;;;;;13.42;100.00;96263.75;5084143;28;20106;-66
2023/06/06 00:04:11;;;;;;;8.35;7.75;;;;;;;13.41;100.00;96269.19;5087875;28;20074;-66
2023/06/06 00:06:37;;;;;;;8.75;7.60;;;;;;;13.37;100.00;96271.28;5089639;28;20085;-66
2023/06/06 00:09:04;;;;;;;10.02;7.38;;;;;;;13.35;100.00;96267.94;5066140;28;20032;-66
2023/06/06 00:11:30;;;;;;;8.70;7.80;;;;;;;13.31;100.00;96263.94;5093008;28;20050;-66
2023/06/06 00:13:56;;;;;;;11.50;8.18;;;;;;;13.36;100.00;96304.00;5086587;28;20036;-66
2023/06/06 00:16:23;;;;;;;8.82;8.00;;;;;;;13.39;100.00;96305.53;5085687;28;20506;-66
2023/06/06 00:18:52;;;;;;;8.73;7.95;;;;;;;13.36;100.00;96298.72;5082963;28;20033;-66
2023/06/06 00:21:18;;;;;;;7.60;6.90;;;;;;;13.33;100.00;96301.63;5087544;28;20028;-66
2023/06/06 00:23:45;;;;;;;8.68;7.75;;;;;;;13.30;100.00;96296.66;5083397;28;20473;-66
2023/06/06 00:26:10;;;;;;;8.38;7.68;;;;;;;13.25;100.00;96305.00;5089729;28;20032;-66
2023/06/06 00:28:36;;;;;;;8.57;7.78;;;;;;;13.20;100.00;96309.06;5082071;28;20024;-65
2023/06/06 00:31:01;;;;;;;9.00;8.20;;;;;;;13.17;100.00;96315.47;5091470;28;20043;-66
2023/06/06 00:33:26;;;;;;;10.52;7.63;;;;;;;13.12;100.00;96317.72;5085802;28;20028;-66
2023/06/06 00:35:52;;;;;;;8.48;7.50;;;;;;;13.13;100.00;96322.84;5084115;28;20031;-65
2023/06/06 00:38:17;;;;;;;8.35;7.57;;;;;;;13.13;100.00;96325.47;5090678;28;20472;-65
2023/06/06 00:40:43;;;;;;;7.97;7.28;;;;;;;13.17;100.00;96328.69;5091288;28;20516;-66
2023/06/06 00:43:08;;;;;;;8.95;7.72;;;;;;;13.14;100.00;96328.97;5078494;28;20238;-66
2023/06/06 00:45:33;;;;;;;10.52;7.93;;;;;;;13.08;100.00;96334.84;5089127;28;20119;-65
2023/06/06 00:47:59;;;;;;;8.48;7.78;;;;;;;13.08;100.00;96330.38;5084633;28;20028;-66
2023/06/06 00:50:25;;;;;;;9.00;8.10;;;;;;;13.03;100.00;96333.44;5082532;28;20051;-65
2023/06/06 00:52:51;;;;;;;7.93;7.13;;;;;;;13.02;100.00;96349.44;5091189;28;20039;-65
2023/06/06 00:55:18;;;;;;;9.77;7.28;;;;;;;13.03;100.00;96348.47;5084249;28;20036;-66
2023/06/06 00:57:44;;;;;;;9.82;7.65;;;;;;;13.03;100.00;96351.94;5083420;28;20472;-66
2023/06/06 01:00:12;;;;;;;8.77;7.35;;;;;;;12.97;100.00;96351.69;5085797;28;20127;-66
2023/06/06 01:02:39;;;;;;;9.02;7.88;;;;;;;12.94;100.00;96354.63;5080452;28;20027;-66
2023/06/06 01:05:08;;;;;;;8.23;7.53;;;;;;;12.94;100.00;96355.44;5085778;28;20052;-65
2023/06/06 01:07:35;;;;;;;8.82;8.10;;;;;;;12.92;100.00;96356.53;5089272;28;20111;-66
2023/06/06 01:10:02;;;;;;;15.40;8.25;;;;;;;12.86;100.00;96363.25;5086485;28;20045;-65
2023/06/06 01:12:37;;;;;;;10.60;8.15;;;;;;;12.86;100.00;96371.16;5090025;28;20380;-66
2023/06/06 01:15:13;;;;;;;12.23;7.93;;;;;;;12.86;100.00;96371.16;5089983;28;20804;-65
2023/06/06 01:17:42;;;;;;;9.73;8.75;;;;;;;12.82;100.00;96378.53;5070684;28;20081;-65
2023/06/06 01:20:11;;;;;;;11.10;7.90;;;;;;;12.80;100.00;96382.28;5087819;28;20039;-66
2023/06/06 01:22:37;;;;;;;9.15;8.15;;;;;;;12.74;100.00;96386.31;5083555;28;20404;-65
2023/06/06 01:25:04;;;;;;;8.38;7.60;;;;;;;12.70;100.00;96390.19;5080952;28;20035;-65
2023/06/06 01:27:33;;;;;;;8.68;7.88;;;;;;;12.69;100.00;96389.38;5082764;28;20074;-66
2023/06/06 01:30:00;;;;;;;8.63;7.88;;;;;;;12.68;100.00;96389.50;5086107;28;20028;-65
2023/06/06 01:32:43;;;;;;;9.25;8.27;;;;;;;12.63;100.00;96389.09;5086063;28;20030;-65
2023/06/06 01:35:31;;;;;;;8.70;8.00;;;;;;;12.57;100.00;96387.81;5090056;28;20032;-65
2023/06/06 01:38:09;;;;;;;8.48;7.68;;;;;;;12.54;100.00;96390.75;5089364;28;20597;-65
2023/06/06 01:40:36;;;;;;;8.23;7.53;;;;;;;12.54;100.00;96391.59;5091750;28;20032;-65
2023/06/06 01:43:04;;;;;;;13.10;7.57;;;;;;;12.50;100.00;96392.84;5084965;28;20028;-65
2023/06/06 01:45:32;;;;;;;9.40;8.60;;;;;;;12.47;100.00;96390.44;5071423;28;20043;-65
2023/06/06 01:47:59;;;;;;;10.30;8.93;;;;;;;12.44;100.00;96388.06;5091006;28;20357;-65
2023/06/06 01:50:25;;;;;;;8.95;8.05;;;;;;;12.41;100.00;96393.63;5084201;28;20036;-65
2023/06/06 01:52:55;;;;;;;10.40;7.68;;;;;;;12.41;100.00;96383.06;5081399;28;20114;-65
2023/06/06 01:55:21;;;;;;;9.13;8.18;;;;;;;12.33;100.00;96375.84;5085818;28;20043;-65
2023/06/06 01:57:47;;;;;;;8.50;7.70;;;;;;;12.34;100.00;96381.97;5086522;28;20089;-65
2023/06/06 02:00:12;;;;;;;8.95;8.05;;;;;;;12.32;100.00;96377.66;5074669;28;20102;-65
2023/06/06 02:02:38;;;;;;;9.68;8.13;;;;;;;12.32;100.00;96379.44;5085937;28;20040;-65
2023/06/06 02:05:04;;;;;;;11.60;8.13;;;;;;;12.29;100.00;96380.56;5083604;28;20036;-65
2023/06/06 02:07:30;;;;;;;8.95;8.02;;;;;;;12.25;100.00;96379.16;5088772;28;20043;-65
2023/06/06 02:09:56;;;;;;;9.48;8.57;;;;;;;12.27;100.00;96382.50;5085182;28;20067;-65
2023/06/06 02:12:21;;;;;;;8.20;7.50;;;;;;;12.29;100.00;96374.44;5090454;28;20020;-65
2023/06/06 02:14:46;;;;;;;9.93;9.10;;;;;;;12.28;100.00;96392.09;5080565;28;20086;-65
2023/06/06 02:17:12;;;;;;;8.80;7.90;;;;;;;12.30;100.00;96395.44;5085209;28;20052;-65
2023/06/06 02:19:37;;;;;;;8.55;7.80;;;;;;;12.32;100.00;96401.41;5088420;28;20047;-65
2023/06/06 02:22:03;;;;;;;8.52;7.82;;;;;;;12.27;100.00;96393.06;5085862;28;20098;-65
2023/06/06 02:24:28;;;;;;;11.05;8.23;;;;;;;12.24;100.00;96395.97;5085504;28;20621;-65
2023/06/06 02:26:54;;;;;;;13.90;8.73;;;;;;;12.26;100.00;96394.00;5094876;28;20168;-65
2023/06/06 02:29:22;;;;;;;9.38;8.57;;;;;;;12.24;100.00;96401.22;5076429;28;20028;-65
2023/06/06 02:31:49;;;;;;;8.75;7.85;;;;;;;12.21;100.00;96395.41;5096700;28;20020;-66
2023/06/06 02:34:14;;;;;;;7.85;7.15;;;;;;;12.20;100.00;96399.84;5093932;28;20036;-65
2023/06/06 02:36:41;;;;;;;7.97;7.32;;;;;;;12.20;100.00;96399.84;5089721;28;20068;-65
2023/06/06 02:39:07;;;;;;;7.75;6.65;;;;;;;12.17;100.00;96395.69;5092550;28;20024;-65
2023/06/06 02:41:32;;;;;;;8.20;7.40;;;;;;;12.17;100.00;96397.47;5088847;28;20032;-65
2023/06/06 02:43:58;;;;;;;9.68;8.68;;;;;;;12.20;100.00;96399.03;5088287;28;20034;-65
2023/06/06 02:46:24;;;;;;;8.98;7.70;;;;;;;12.17;100.00;96400.97;5089952;28;20436;-65
2023/06/06 02:48:50;;;;;;;11.57;7.53;;;;;;;12.17;100.00;96392.19;5089320;28;20036;-65
2023/06/06 02:51:16;;;;;;;7.50;6.85;;;;;;;12.10;100.00;96393.72;5090569;28;20036;-65
2023/06/06 02:53:43;;;;;;;8.10;7.18;;;;;;;12.02;100.00;96392.56;5088243;28;20020;-66
2023/06/06 02:56:10;;;;;;;8.05;7.35;;;;;;;12.02;100.00;96397.03;5093898;28;20024;-66
2023/06/06 02:58:36;;;;;;;8.65;7.85;;;;;;;11.94;100.00;96404.75;5085539;28;20088;-65
2023/06/06 03:01:03;;;;;;;7.80;7.13;;;;;;;11.92;100.00;96404.00;5084970;28;20111;-65
2023/06/06 03:03:29;;;;;;;8.25;7.55;;;;;;;11.83;100.00;96395.94;5087936;28;20034;-65
2023/06/06 03:05:56;;;;;;;8.52;7.82;;;;;;;11.81;100.00;96394.38;5090979;28;20028;-65
2023/06/06 03:08:22;;;;;;;9.00;8.20;;;;;;;11.75;100.00;96401.88;5095194;28;20190;-68
2023/06/06 03:10:49;;;;;;;8.48;7.68;;;;;;;11.72;100.00;96402.13;5091656;28;20547;-65
2023/06/06 03:13:15;;;;;;;8.77;7.80;;;;;;;11.69;100.00;96407.69;5090123;28;20436;-66
2023/06/06 03:15:41;;;;;;;8.27;7.68;;;;;;;11.72;100.00;96420.59;5091853;28;20089;-65
2023/06/06 03:18:09;;;;;;;8.13;7.35;;;;;;;11.72;100.00;96422.41;5088554;28;20056;-65
2023/06/06 03:20:36;;;;;;;8.50;7.80;;;;;;;11.72;100.00;96417.16;5089928;28;20035;-66
2023/06/06 03:23:02;;;;;;;8.45;7.75;;;;;;;11.67;100.00;96420.16;5085903;28;20032;-65
2023/06/06 03:25:28;;;;;;;9.70;8.73;;;;;;;11.66;100.00;96421.13;5101395;28;20024;-65
2023/06/06 03:27:54;;;;;;;9.63;8.25;;;;;;;11.66;100.00;96428.19;5090463;28;20089;-66
2023/06/06 03:30:19;;;;;;;10.23;9.27;;;;;;;11.64;100.00;96425.72;5087193;28;20043;-65
2023/06/06 03:32:45;;;;;;;11.10;8.40;;;;;;;11.61;100.00;96437.34;5088327;28;20020;-65
2023/06/06 03:35:14;;;;;;;9.13;8.40;;;;;;;11.60;100.00;96433.03;5091873;28;20035;-65
2023/06/06 03:37:40;;;;;;;9.00;8.20;;;;;;;11.61;100.00;96425.97;5090418;28;20035;-65
2023/06/06 03:40:06;;;;;;;10.20;8.90;;;;;;;11.63;100.00;96428.47;5087723;28;20096;-66
2023/06/06 03:42:32;;;;;;;9.05;8.15;;;;;;;11.60;100.00;96435.66;5081791;28;20073;-65
2023/06/06 03:44:57;;;;;;;9.52;8.65;;;;;;;11.60;100.00;96427.75;5096138;28;20111;-66
2023/06/06 03:47:22;;;;;;;9.27;8.38;;;;;;;11.56;100.00;96428.13;5091021;28;20032;-65
2023/06/06 03:49:48;;;;;;;8.50;7.80;;;;;;;11.52;100.00;96421.47;5083014;28;20052;-65
2023/06/06 03:52:13;;;;;;;9.65;8.73;;;;;;;11.49;100.00;96429.63;5082443;28;20024;-65
2023/06/06 03:54:39;;;;;;;9.05;8.27;;;;;;;11.48;100.00;96422.69;5089456;28;20020;-65
2023/06/06 03:57:08;;;;;;;9.20;8.35;;;;;;;11.45;100.00;96411.44;5088928;28;20035;-66
2023/06/06 03:59:34;;;;;;;9.63;8.10;;;;;;;11.43;100.00;96413.38;5072665;28;20028;-65
2023/06/06 04:01:59;;;;;;;14.77;13.30;;;;;;;11.44;100.00;96412.41;5092389;28;20077;-65
2023/06/06 04:04:26;;;;;;;13.68;12.25;;;;;;;11.48;100.00;96409.50;5088899;28;20023;-65
2023/06/06 04:06:52;;;;;;;10.80;9.82;;;;;;;11.49;100.00;96345.25;5090439;28;20091;-65
2023/06/06 04:09:17;;;;;;;10.48;8.95;;;;;;;11.45;100.00;96350.78;5097721;28;20043;-65
2023/06/06 04:11:43;;;;;;;12.55;8.93;;;;;;;11.45;100.00;96357.84;5092170;28;20031;-65
2023/06/06 04:14:11;;;;;;;13.00;9.55;;;;;;;11.43;100.00;96355.38;5084516;28;20077;-65
2023/06/06 04:16:37;;;;;;;10.38;9.25;;;;;;;11.43;100.00;96351.88;5083443;28;20619;-66
2023/06/06 04:19:03;;;;;;;16.30;14.75;;;;;;;11.45;100.00;96348.16;5086574;28;20052;-65
2023/06/06 04:21:30;;;;;;;12.68;10.73;;;;;;;11.47;100.00;96345.38;5088815;28;20096;-65
2023/06/06 04:23:56;;;;;;;10.68;9.73;;;;;;;11.50;100.00;96341.66;5090292;28;20177;-65
2023/06/06 04:26:23;;;;;;;12.60;11.30;;;;;;;11.48;100.00;96346.22;5094287;28;20052;-66
2023/06/06 04:28:52;;;;;;;11.38;10.38;;;;;;;11.46;100.00;96348.97;5084022;28;20020;-65
2023/06/06 04:31:18;;;;;;;9.80;8.90;;;;;;;11.46;100.00;96349.84;5091188;28;20024;-65
2023/06/06 04:33:43;;;;;;;9.88;8.88;;;;;;;11.52;100.00;96358.16;5092791;28;20078;-65
2023/06/06 04:36:11;;;;;;;10.95;9.27;;;;;;;11.55;100.00;96357.91;5085338;28;20052;-66
2023/06/06 04:38:37;;;;;;;10.07;9.23;;;;;;;11.56;100.00;96356.94;5093007;28;20028;-65
2023/06/06 04:41:02;;;;;;;12.15;9.38;;;;;;;11.56;100.00;96368.34;5093310;28;20110;-66
2023/06/06 04:43:27;;;;;;;8.85;8.02;;;;;;;11.60;100.00;96364.47;5090539;28;20066;-66
2023/06/06 04:45:53;;;;;;;10.02;8.98;;;;;;;11.63;100.00;96368.66;5088814;28;20107;-66
2023/06/06 04:48:19;;;;;;;10.10;9.10;;;;;;;11.66;100.00;96372.81;5094346;28;20028;-66
2023/06/06 04:50:49;;;;;;;9.60;8.80;;;;;;;11.67;100.00;96385.03;5090796;28;20046;-65
2023/06/06 04:53:15;;;;;;;9.55;8.63;;;;;;;11.72;100.00;96383.66;5091875;28;20063;-65
2023/06/06 04:55:40;;;;;;;9.82;8.80;;;;;;;11.75;100.00;96387.88;5087730;28;20024;-65
2023/06/06 04:58:06;;;;;;;9.38;8.57;;;;;;;11.79;100.00;96394.53;5086288;28;20054;-65
2023/06/06 05:00:32;;;;;;;9.43;8.43;;;;;;;11.83;100.00;96389.84;5094416;28;20027;-65
2023/06/06 05:02:57;;;;;;;10.30;9.38;;;;;;;11.85;100.00;96386.09;5092440;28;20101;-65
2023/06/06 05:05:22;;;;;;;9.82;8.98;;;;;;;11.92;100.00;96385.53;5079083;28;20032;-65
2023/06/06 05:07:48;;;;;;;9.90;8.98;;;;;;;12.02;100.00;96387.28;5093384;28;20031;-65
2023/06/06 05:10:15;;;;;;;9.07;8.30;;;;;;;12.14;100.00;96395.09;5087748;28;20040;-65
2023/06/06 05:12:40;;;;;;;9.32;8.45;;;;;;;12.23;100.00;96394.28;5091966;28;20063;-65
2023/06/06 05:15:06;;;;;;;8.70;8.00;;;;;;;12.32;100.00;96387.38;5088239;28;20069;-65
2023/06/06 05:17:31;;;;;;;8.82;8.02;;;;;;;12.42;100.00;96380.31;5090942;28;20566;-65
2023/06/06 05:19:57;;;;;;;10.50;9.57;;;;;;;12.57;100.00;96382.53;5096020;28;20028;-65
2023/06/06 05:22:22;;;;;;;12.40;9.82;;;;;;;12.62;100.00;96375.06;5087105;28;20019;-65
2023/06/06 05:24:48;;;;;;;9.85;8.68;;;;;;;12.73;100.00;96374.09;5088184;28;20503;-65
2023/06/06 05:27:13;;;;;;;10.27;9.13;;;;;;;12.85;100.00;96370.31;5091251;28;20107;-65
2023/06/06 05:29:39;;;;;;;9.45;8.40;;;;;;;12.95;100.00;96369.50;5080646;28;20067;-66
2023/06/06 05:32:05;;;;;;;10.20;9.18;;;;;;;13.02;100.00;96363.47;5087994;28;20102;-65
2023/06/06 05:34:32;;;;;;;10.43;8.93;;;;;;;13.10;100.00;96360.13;5087453;28;20488;-65
2023/06/06 05:36:58;;;;;;;9.75;8.48;;;;;;;13.20;100.00;96357.47;5086799;28;20209;-66
2023/06/06 05:39:24;;;;;;;10.30;9.15;;;;;;;13.33;100.00;96350.09;5082432;28;20056;-66
2023/06/06 05:41:54;;;;;;;11.23;9.25;;;;;;;13.44;100.00;96351.75;5084838;28;20016;-65
2023/06/06 05:44:20;;;;;;;12.82;11.52;;;;;;;13.53;100.00;96344.78;5071268;28;20028;-65
2023/06/06 05:46:47;;;;;;;14.25;12.88;;;;;;;13.67;100.00;96343.47;5084829;28;20515;-65
2023/06/06 05:49:13;;;;;;;17.58;15.85;;;;;;;13.81;100.00;96346.59;5063276;28;20023;-64
2023/06/06 05:51:38;;;;;;;19.33;17.50;;;;;;;13.90;100.00;96335.97;5090669;28;20020;-66
2023/06/06 05:54:06;;;;;;;31.75;28.45;;;;;;;13.97;100.00;96330.94;5087503;28;20039;-66
2023/06/06 05:56:31;;;;;;;28.50;21.83;;;;;;;14.06;100.00;96326.56;5087460;28;20099;-68
2023/06/06 05:58:56;;;;;;;15.32;13.93;;;;;;;14.18;100.00;96317.44;5091531;28;20035;-65
2023/06/06 06:01:24;;;;;;;13.85;11.82;;;;;;;14.28;100.00;96304.13;5096815;28;20183;-66
2023/06/06 06:03:52;;;;;;;13.90;12.52;;;;;;;14.35;100.00;96291.09;5095903;28;20274;-66
2023/06/06 06:06:19;;;;;;;12.35;11.35;;;;;;;14.46;100.00;96298.00;5077365;28;20035;-66
2023/06/06 06:08:48;;;;;;;11.70;10.70;;;;;;;14.55;100.00;96296.25;5087167;28;20027;-65
2023/06/06 06:11:13;;;;;;;9.93;8.95;;;;;;;14.66;100.00;96287.25;5096338;28;20077;-67
2023/06/06 06:13:39;;;;;;;10.02;8.88;;;;;;;14.78;100.00;96283.41;5091425;28;20016;-67
2023/06/06 06:16:04;;;;;;;10.55;9.55;;;;;;;14.89;100.00;96271.72;5091387;28;20077;-66
2023/06/06 06:18:30;;;;;;;10.80;9.77;;;;;;;15.01;100.00;96265.16;5074335;28;20032;-66
2023/06/06 06:20:56;;;;;;;9.93;8.93;;;;;;;15.13;100.00;96257.78;5088055;28;20024;-66
2023/06/06 06:23:21;;;;;;;9.40;8.57;;;;;;;15.28;100.00;96263.34;5087638;28;20391;-66
2023/06/06 06:25:47;;;;;;;7.88;7.18;;;;;;;15.44;100.00;96259.94;5090991;28;20101;-66
2023/06/06 06:28:23;;;;;;;8.70;7.18;;;;;;;15.60;100.00;96239.78;5084187;28;20024;-66
2023/06/06 06:30:49;;;;;;;7.93;7.20;;;;;;;15.84;100.00;96231.06;5089089;28;20016;-66
2023/06/06 06:33:15;;;;;;;7.82;6.97;;;;;;;15.89;100.00;96222.66;5087890;28;20046;-66
2023/06/06 06:35:42;;;;;;;7.13;6.53;;;;;;;16.18;100.00;96224.03;5086832;28;20059;-66
2023/06/06 06:38:07;;;;;;;7.40;6.75;;;;;;;16.53;100.00;96230.03;5094483;28;20635;-67
2023/06/06 06:40:32;;;;;;;8.98;7.28;;;;;;;16.60;100.00;96212.41;5092384;28;20020;-67
2023/06/06 06:42:58;;;;;;;7.72;7.00;;;;;;;16.90;100.00;96209.22;5091191;28;20036;-67
2023/06/06 06:45:24;;;;;;;7.07;6.43;;;;;;;17.29;100.00;96212.97;5092375;28;20141;-68
2023/06/06 06:47:49;;;;;;;7.65;7.05;;;;;;;17.47;100.00;96200.28;5091189;28;20241;-67
2023/06/06 06:50:15;;;;;;;7.75;6.20;;;;;;;17.79;100.00;96192.31;5089896;28;20123;-68
2023/06/06 06:52:41;;;;;;;6.95;6.30;;;;;;;17.88;100.00;96185.09;5078562;28;20028;-67
2023/06/06 06:55:07;;;;;;;7.50;6.80;;;;;;;17.97;100.00;96177.88;5075694;28;20019;-68
2023/06/06 06:57:36;;;;;;;8.85;6.63;;;;;;;17.93;100.00;96172.06;5090571;28;20232;-67
2023/06/06 07:00:45;;;;;;;6.45;5.95;;;;;;;18.07;100.00;96180.34;5083818;28;20027;-68
2023/06/06 07:02:53;;;;;;;7.25;6.55;;;;;;;18.69;100.00;96192.69;5085808;28;20493;-68
2023/06/06 07:05:19;;;;;;;9.68;6.93;;;;;;;19.09;100.00;96194.31;5085971;28;20554;-67
2023/06/06 07:07:53;;;;;;;7.18;6.47;;;;;;;19.25;100.00;96188.81;5089684;28;20028;-68
2023/06/06 07:10:19;;;;;;;6.68;6.05;;;;;;;19.67;100.00;96186.47;5088089;28;20044;-68
2023/06/06 07:12:49;;;;;;;6.68;6.07;;;;;;;19.83;100.00;96184.59;5087064;28;20055;-68
2023/06/06 07:15:16;;;;;;;7.10;6.60;;;;;;;19.69;100.00;96184.41;5093250;28;20027;-68
2023/06/06 07:17:49;;;;;;;6.15;5.65;;;;;;;19.84;100.00;96191.59;5088520;28;20488;-68
2023/06/06 07:20:14;;;;;;;6.57;5.95;;;;;;;20.12;100.00;96191.72;5087798;28;20480;-68
2023/06/06 07:22:40;;;;;;;6.63;5.85;;;;;;;20.18;100.00;96187.44;5088166;28;20113;-68
2023/06/06 07:25:07;;;;;;;7.13;5.40;;;;;;;20.40;100.00;96185.59;5088048;28;20024;-68
2023/06/06 07:27:37;;;;;;;6.95;6.30;;;;;;;20.61;100.00;96184.75;5090273;28;20076;-68
2023/06/06 07:30:12;;;;;;;6.63;6.00;;;;;;;20.90;100.00;96184.78;5075650;28;20400;-68
2023/06/06 07:32:37;;;;;;;;;;;;;;;21.06;100.00;96170.25;5095049;28;20016;-68
2023/06/06 07:35:03;;;;;;;5.88;5.38;;;;;;;21.29;100.00;96156.59;5095261;28;19915;-67
2023/06/06 07:37:29;;;;;;;6.40;5.60;;;;;;;21.57;100.00;96173.63;5087249;28;20584;-68
2023/06/06 07:39:54;;;;;;;5.95;5.50;;;;;;;21.49;100.00;96173.78;5090129;28;20064;-68
2023/06/06 07:42:20;;;;;;;5.65;5.07;;;;;;;21.60;100.00;96159.84;5087795;28;20553;-68
2023/06/06 07:44:45;;;;;;;5.78;5.38;;;;;;;21.64;100.00;96152.19;5086354;28;20039;-69
2023/06/06 07:47:11;;;;;;;5.38;4.93;;;;;;;21.58;100.00;96154.66;5095297;28;20035;-68
2023/06/06 07:49:36;;;;;;;5.85;5.20;;;;;;;21.84;100.00;96153.13;5089563;28;20025;-68
2023/06/06 07:52:02;;;;;;;6.10;5.50;;;;;;;21.88;100.00;96151.72;5086611;28;20056;-68
2023/06/06 07:54:27;;;;;;;5.63;5.15;;;;;;;22.18;100.00;96161.22;5089565;28;20024;-68
2023/06/06 07:56:54;;;;;;;7.25;5.28;;;;;;;22.31;100.00;96153.22;5092245;28;20043;-68
2023/06/06 07:59:21;;;;;;;5.47;5.07;;;;;;;22.58;100.00;96155.94;5092573;28;20030;-68
2023/06/06 08:01:47;;;;;;;6.60;5.20;;;;;;;22.85;100.00;96142.47;5092734;28;20103;-68
2023/06/06 08:04:12;;;;;;;5.40;5.00;;;;;;;22.52;100.00;96138.00;5085571;28;20055;-68
2023/06/06 08:06:38;;;;;;;6.40;4.80;;;;;;;22.87;100.00;96140.41;5092948;28;20070;-68
2023/06/06 08:09:06;;;;;;;5.80;5.30;;;;;;;23.18;100.00;96135.38;5089455;28;20027;-68
2023/06/06 08:11:34;;;;;;;5.50;5.00;;;;;;;22.48;100.00;96119.81;5090054;28;20115;-68
2023/06/06 08:14:00;;;;;;;5.22;4.72;;;;;;;21.75;100.00;96109.59;5087637;28;20024;-68
2023/06/06 08:16:25;;;;;;;5.72;5.13;;;;;;;22.42;100.00;96124.13;5092220;28;20366;-68
2023/06/06 08:18:50;;;;;;;6.22;4.90;;;;;;;23.11;100.00;96111.28;5090696;28;20032;-69
2023/06/06 08:21:16;;;;;;;5.50;5.10;;;;;;;23.03;100.00;96106.94;5088633;28;20248;-68
2023/06/06 08:23:41;;;;;;;5.15;4.75;;;;;;;23.30;100.00;96106.03;5070163;28;20032;-69
2023/06/06 08:26:07;;;;;;;7.60;5.03;;;;;;;23.71;100.00;96091.38;5091305;28;20026;-69
2023/06/06 08:28:32;;;;;;;6.45;4.85;;;;;;;23.79;100.00;96102.94;5088916;28;20344;-68
2023/06/06 08:30:57;;;;;;;4.95;4.55;;;;;;;23.87;100.00;96102.69;5089945;28;20022;-68
2023/06/06 08:33:23;;;;;;;6.20;5.63;;;;;;;23.63;100.00;96110.47;5085500;28;20054;-68
2023/06/06 08:35:48;;;;;;;6.47;5.22;;;;;;;23.77;100.00;96107.72;5087545;28;20480;-69
2023/06/06 08:38:15;;;;;;;6.07;5.10;;;;;;;23.28;100.00;96097.38;5092074;28;20035;-69
2023/06/06 08:40:41;;;;;;;5.82;5.20;;;;;;;23.66;100.00;96103.84;5087460;28;20120;-69
2023/06/06 08:43:11;;;;;;;5.53;5.00;;;;;;;23.61;100.00;96091.03;5085712;28;20099;-69
2023/06/06 08:45:42;;;;;;;5.03;4.65;;;;;;;23.50;100.00;96095.22;5073260;28;20055;-68
2023/06/06 08:48:10;;;;;;;7.43;5.25;;;;;;;23.83;100.00;96093.41;5083369;28;20505;-67
2023/06/06 08:50:38;;;;;;;4.90;4.50;;;;;;;23.85;100.00;96091.31;5090099;28;20024;-67
2023/06/06 08:53:05;;;;;;;6.00;5.40;;;;;;;23.99;100.00;96071.38;5088046;28;20023;-68
2023/06/06 08:55:35;;;;;;;6.35;5.15;;;;;;;23.89;100.00;96066.47;5090792;28;20028;-68
2023/06/06 08:58:03;;;;;;;6.30;4.97;;;;;;;23.15;100.00;96063.31;5080883;28;20028;-68
2023/06/06 09:00:28;;;;;;;5.75;5.13;;;;;;;23.13;100.00;96060.03;5094757;28;20024;-69
2023/06/06 09:02:55;;;;;;;6.45;5.10;;;;;;;23.93;100.00;96060.66;5091184;28;20039;-71
2023/06/06 09:05:21;;;;;;;4.82;4.53;;;;;;;24.54;100.00;96040.31;5091665;28;20024;-71
2023/06/06 09:07:51;;;;;;;6.22;5.32;;;;;;;24.20;100.00;96047.84;5089429;28;20012;-70
2023/06/06 09:10:17;;;;;;;5.60;5.10;;;;;;;24.39;100.00;96069.41;5094683;28;20412;-70
2023/06/06 09:12:44;;;;;;;5.25;4.85;;;;;;;24.61;100.00;96051.81;5092570;28;20019;-70
2023/06/06 09:15:10;;;;;;;5.63;5.20;;;;;;;24.20;100.00;96050.53;5085840;28;20020;-71
2023/06/06 09:17:41;;;;;;;8.55;4.97;;;;;;;24.56;100.00;96040.91;5086788;28;20110;-71
2023/06/06 09:20:08;;;;;;;5.72;5.10;;;;;;;25.07;100.00;96048.88;5099039;28;20028;-71
2023/06/06 09:22:42;;;;;;;5.32;4.82;;;;;;;25.52;100.00;96045.03;5085673;28;20020;-70
2023/06/06 09:25:24;;;;;;;5.20;4.80;;;;;;;26.03;100.00;96018.56;5087314;28;20028;-71
2023/06/06 09:27:58;;;;;;;5.60;5.18;;;;;;;26.25;100.00;96009.94;5090931;28;20024;-70
2023/06/06 09:30:26;;;;;;;5.38;4.88;;;;;;;26.03;100.00;95994.28;5092160;28;20050;-70
2023/06/06 09:33:01;;;;;;;5.13;4.72;;;;;;;25.78;100.00;95990.97;5079664;28;20044;-69
2023/06/06 09:35:34;;;;;;;5.10;4.70;;;;;;;25.85;100.00;95983.59;5084215;28;20046;-69
2023/06/06 09:38:08;;;;;;;5.20;4.70;;;;;;;26.17;100.00;95964.41;5084685;28;20676;-69
2023/06/06 09:40:45;;;;;;;5.80;5.22;;;;;;;26.37;100.00;95952.44;5089677;28;20488;-69
2023/06/06 09:43:11;;;;;;;6.55;4.60;;;;;;;26.43;100.00;95951.50;5091108;28;20086;-69
2023/06/06 09:45:50;;;;;;;5.18;4.78;;;;;;;26.71;100.00;95914.81;5091987;28;20016;-69
2023/06/06 09:48:27;;;;;;;6.90;5.32;;;;;;;26.52;100.00;95896.09;5091902;28;20152;-69
2023/06/06 09:50:53;;;;;;;6.07;4.70;;;;;;;26.83;100.00;95891.28;5090407;28;20040;-70
2023/06/06 09:53:23;;;;;;;6.25;4.85;;;;;;;26.84;100.00;95895.63;5084075;28;20032;-69
2023/06/06 09:55:49;;;;;;;5.30;4.80;;;;;;;26.79;100.00;95873.91;5087864;28;20040;-68
2023/06/06 09:58:16;;;;;;;5.20;4.80;;;;;;;27.36;100.00;95825.50;5090479;28;20024;-69
2023/06/06 10:00:43;;;;;;;6.65;5.10;;;;;;;27.63;100.00;95863.53;5086248;28;20040;-69
2023/06/06 10:03:18;;;;;;;6.13;5.53;;;;;;;27.38;100.00;95855.78;5089418;28;20038;-69
2023/06/06 10:05:47;;;;;;;9.60;6.53;;;;;;;26.72;100.00;95819.25;5096295;28;20108;-69
2023/06/06 10:08:14;;;;;;;5.50;5.00;;;;;;;26.75;100.00;95816.06;5090670;28;20573;-69
2023/06/06 10:10:42;;;;;;;5.05;4.65;;;;;;;26.96;100.00;95809.16;5083254;28;20060;-68
2023/06/06 10:13:12;;;;;;;5.82;4.90;;;;;;;27.34;100.00;95812.25;5087791;28;20062;-68
2023/06/06 10:15:38;;;;;;;5.45;4.95;;;;;;;26.73;100.00;95783.09;5088695;28;20526;-68
2023/06/06 10:18:04;;;;;;;4.47;4.05;;;;;;;27.23;100.00;95811.25;5084159;28;20020;-69
2023/06/06 10:20:30;;;;;;;5.18;4.10;;;;;;;27.38;100.00;95772.84;5093761;28;20032;-69
2023/06/06 10:22:58;;;;;;;8.30;4.47;;;;;;;27.77;100.00;95779.38;5085122;28;20516;-68
2023/06/06 10:25:24;;;;;;;6.03;4.50;;;;;;;27.83;100.00;95779.16;5082292;28;20648;-69
2023/06/06 10:28:02;;;;;;;6.03;4.80;;;;;;;27.65;100.00;95761.34;5088196;28;20024;-69
2023/06/06 10:30:43;;;;;;;4.57;4.28;;;;;;;27.55;100.00;95747.72;5082734;28;20085;-68
2023/06/06 10:33:25;;;;;;;4.93;4.53;;;;;;;28.25;100.00;95709.34;5080908;28;20028;-68
2023/06/06 10:36:02;;;;;;;4.43;4.13;;;;;;;28.09;100.00;95720.00;5078789;28;20508;-67
2023/06/06 10:38:27;;;;;;;4.97;4.63;;;;;;;27.88;100.00;95705.41;5087013;28;20020;-67
2023/06/06 10:40:58;;;;;;;5.97;4.78;;;;;;;27.79;100.00;95715.03;5087109;28;20091;-68
2023/06/06 10:43:32;;;;;;;5.55;5.05;;;;;;;28.21;100.00;95713.66;5082013;28;20481;-69
2023/06/06 10:45:59;;;;;;;6.68;4.85;;;;;;;28.24;100.00;95684.19;5084663;28;20035;-71
2023/06/06 10:48:45;;;;;;;5.10;4.70;;;;;;;28.36;100.00;95672.38;5095343;28;20076;-70
2023/06/06 10:51:30;;;;;;;4.93;4.43;;;;;;;28.37;100.00;95674.00;5099091;28;20438;-67
2023/06/06 10:54:17;;;;;;;5.35;4.78;;;;;;;28.32;100.00;95672.09;5088327;28;20024;-70
2023/06/06 10:57:01;;;;;;;11.30;4.80;;;;;;;28.45;100.00;95663.53;5086026;28;20023;-69
2023/06/06 10:59:28;;;;;;;6.03;5.30;;;;;;;28.54;100.00;95647.66;5097882;28;20468;-70
2023/06/06 11:01:54;;;;;;;8.95;4.57;;;;;;;29.41;100.00;95622.25;5073866;28;20035;-72
2023/06/06 11:04:24;;;;;;;5.97;4.32;;;;;;;28.85;100.00;95615.44;5096851;28;20027;-69
2023/06/06 11:06:52;;;;;;;5.10;4.43;;;;;;;27.73;100.00;95627.63;5099493;28;20016;-69
2023/06/06 11:09:20;;;;;;;4.80;4.38;;;;;;;28.05;100.00;95631.47;5091365;28;20521;-70
2023/06/06 11:11:45;;;;;;;5.32;4.82;;;;;;;28.34;100.00;95642.06;5094476;28;20142;-69
2023/06/06 11:14:11;;;;;;;5.22;4.30;;;;;;;28.72;100.00;95624.75;5100607;28;20052;-68
2023/06/06 11:16:39;;;;;;;4.55;4.15;;;;;;;28.78;100.00;95603.97;5100016;28;20019;-70
2023/06/06 11:19:08;;;;;;;11.45;4.97;;;;;;;29.25;100.00;95596.94;5095636;28;20052;-68
2023/06/06 11:21:36;;;;;;;6.80;4.57;;;;;;;29.42;100.00;95601.41;5097187;28;20060;-70
2023/06/06 11:24:03;;;;;;;13.60;5.40;;;;;;;29.30;100.00;95591.56;5086481;28;20052;-68
2023/06/06 11:26:28;;;;;;;4.97;4.07;;;;;;;29.15;100.00;95586.88;5096411;28;20035;-69